createdAt,value
2022-09-02T00:02:01.266Z,12.04
2022-09-02T00:25:44.980Z,11.72
2022-09-02T00:29:19.212Z,11.50
2022-09-02T00:32:56.427Z,11.39
2022-09-02T00:46:30.772Z,11.11
2022-09-02T00:50:08.749Z,10.85
2022-09-02T01:05:19.795Z,10.74
2022-09-02T01:08:59.891Z,10.55
2022-09-02T01:12:34.561Z,10.53
2022-09-02T01:25:50.833Z,10.42
2022-09-02T01:29:24.680Z,10.40
2022-09-02T01:32:58.327Z,10.32
2022-09-02T01:46:23.157Z,10.29
2022-09-02T01:49:56.951Z,10.21
2022-09-02T01:53:34.511Z,10.26
2022-09-02T02:06:57.882Z,10.40
2022-09-02T02:10:31.921Z,10.34
2022-09-02T02:14:05.570Z,10.34
2022-09-02T02:17:39.910Z,10.33
2022-09-02T02:21:26.991Z,10.31
2022-09-02T02:34:52.138Z,10.46
2022-09-02T02:38:25.717Z,10.45
2022-09-02T02:41:59.549Z,10.47
2022-09-02T02:55:25.640Z,10.54
2022-09-02T02:59:01.760Z,10.49
2022-09-02T03:13:25.750Z,10.40
2022-09-02T03:17:00.810Z,10.25
2022-09-02T03:20:36.150Z,10.15
2022-09-02T03:28:13.956Z,9.99
2022-09-02T03:45:08.362Z,10.15
2022-09-02T03:48:41.868Z,10.07
2022-09-02T03:51:58.131Z,10.02
2022-09-02T03:55:26.199Z,10.00
2022-09-02T03:59:03.180Z,10.02
2022-09-02T04:02:29.619Z,9.99
2022-09-02T04:08:59.761Z,10.08
2022-09-02T04:12:33.290Z,9.97
2022-09-02T04:16:12.961Z,9.92
2022-09-02T04:19:46.331Z,9.83
2022-09-02T04:37:39.439Z,10.14
2022-09-02T04:41:18.178Z,10.18
2022-09-02T04:44:58.280Z,10.24
2022-09-02T04:58:24.460Z,10.68
2022-09-02T05:02:01.259Z,10.79
2022-09-02T05:05:34.864Z,10.93
2022-09-02T05:09:09.181Z,11.14
2022-09-02T05:12:44.122Z,11.37
2022-09-02T05:26:09.782Z,12.19
2022-09-02T05:29:45.555Z,12.34
2022-09-02T05:33:19.559Z,12.46
2022-09-02T05:50:03.302Z,13.15
2022-09-02T05:53:36.861Z,13.35
2022-09-02T05:57:14.813Z,13.51
2022-09-02T06:10:46.270Z,14.31
2022-09-02T06:14:25.516Z,14.41
2022-09-02T06:18:02.219Z,14.55
2022-09-02T06:24:43.730Z,14.92
2022-09-02T06:28:19.078Z,15.03
2022-09-02T06:31:54.987Z,15.30
2022-09-02T06:35:28.401Z,15.39
2022-09-02T06:39:03.460Z,15.60
2022-09-02T06:42:37.330Z,15.75
2022-09-02T06:56:10.202Z,16.27
2022-09-02T06:59:43.881Z,16.39
2022-09-02T07:03:36.026Z,16.63
2022-09-02T07:10:17.591Z,16.82
2022-09-02T07:13:51.822Z,16.68
2022-09-02T07:31:01.414Z,17.24
2022-09-02T07:34:32.534Z,17.32
2022-09-02T07:38:04.670Z,17.53
2022-09-02T07:41:35.919Z,17.56
2022-09-02T07:45:08.839Z,17.62
2022-09-02T07:48:39.630Z,18.07
2022-09-02T07:52:11.484Z,18.20
2022-09-02T08:13:02.671Z,17.81
2022-09-02T08:16:36.334Z,17.69
2022-09-02T08:20:12.402Z,17.87
2022-09-02T08:23:49.640Z,18.09
2022-09-02T08:27:23.121Z,18.19
2022-09-02T08:41:03.100Z,18.96
2022-09-02T08:44:37.435Z,18.88
2022-09-02T08:48:16.211Z,19.10
2022-09-02T08:51:53.335Z,19.05
2022-09-02T09:06:24.027Z,19.05
2022-09-02T09:10:11.970Z,18.61
2022-09-02T09:14:05.371Z,18.70
2022-09-02T09:17:45.570Z,18.88
2022-09-02T09:38:16.971Z,18.55
2022-09-02T09:41:51.652Z,18.05
2022-09-02T09:45:32.824Z,17.84
2022-09-02T09:49:07.472Z,18.05
2022-09-02T09:52:45.761Z,18.38
2022-09-02T09:56:29.289Z,18.27
2022-09-02T10:00:04.426Z,18.54
2022-09-02T10:03:32.928Z,18.44
2022-09-02T10:06:59.460Z,18.46
2022-09-02T10:20:31.890Z,18.50
2022-09-02T10:24:13.919Z,18.41
2022-09-02T10:27:59.505Z,18.33
2022-09-02T10:31:40.654Z,18.37
2022-09-02T10:55:43.230Z,18.80
2022-09-02T10:59:24.071Z,19.01
2022-09-02T11:03:09.006Z,19.41
2022-09-02T11:27:04.431Z,20.04
2022-09-02T11:30:48.819Z,19.84
2022-09-02T11:34:36.047Z,20.02
2022-09-02T11:38:20.925Z,20.32
2022-09-02T11:42:05.811Z,19.89
2022-09-02T12:00:08.450Z,20.05
2022-09-02T12:04:39.790Z,20.16
2022-09-02T12:07:53.552Z,20.11
2022-09-02T12:21:28.950Z,19.56
2022-09-02T12:25:04.860Z,19.41
2022-09-02T12:28:42.221Z,19.74
2022-09-02T12:46:29.620Z,20.30
2022-09-02T12:50:09.328Z,20.34
2022-09-02T12:53:48.613Z,20.68
2022-09-02T13:11:12.450Z,20.54
2022-09-02T13:15:23.387Z,20.33
2022-09-02T13:19:23.021Z,20.29
2022-09-02T13:36:36.961Z,19.34
2022-09-02T13:40:28.480Z,19.22
2022-09-02T13:44:13.125Z,19.04
2022-09-02T13:47:48.805Z,19.16
2022-09-02T14:08:32.471Z,19.19
2022-09-02T14:12:08.038Z,19.28
2022-09-02T14:15:42.046Z,19.42
2022-09-02T14:19:28.011Z,19.35
2022-09-02T14:23:04.231Z,19.37
2022-09-02T14:26:43.220Z,19.23
2022-09-02T14:30:31.721Z,19.18
2022-09-02T14:33:58.622Z,19.20
2022-09-02T14:37:28.978Z,19.29
2022-09-02T14:41:06.508Z,19.21
2022-09-02T14:44:41.132Z,19.19
2022-09-02T15:02:25.850Z,19.09
2022-09-02T15:06:06.150Z,18.99
2022-09-02T15:09:45.060Z,18.98
2022-09-02T15:19:52.630Z,19.10
2022-09-02T15:23:23.880Z,19.00
2022-09-02T15:26:55.653Z,18.66
2022-09-02T15:36:46.920Z,18.65
2022-09-02T15:40:22.513Z,18.57
2022-09-02T15:43:58.090Z,18.72
2022-09-02T15:57:23.698Z,19.04
2022-09-02T16:00:48.590Z,18.93
2022-09-02T16:04:23.222Z,18.85
2022-09-02T16:07:56.735Z,18.72
2022-09-02T16:21:43.649Z,18.70
2022-09-02T16:25:17.445Z,18.49
2022-09-02T16:28:52.902Z,18.44
2022-09-02T16:42:40.800Z,18.46
2022-09-02T16:46:11.711Z,18.32
2022-09-02T16:49:42.814Z,18.21
2022-09-02T16:56:34.896Z,18.18
2022-09-02T17:00:10.946Z,18.06
2022-09-02T17:03:47.459Z,17.97
2022-09-02T17:20:32.842Z,18.00
2022-09-02T17:24:08.442Z,17.90
2022-09-02T17:27:44.020Z,17.86
2022-09-02T17:31:49.536Z,17.81
2022-09-02T17:49:15.364Z,17.48
2022-09-02T17:52:48.289Z,17.35
2022-09-02T17:56:50.422Z,17.28
2022-09-02T18:00:27.111Z,17.24
2022-09-02T18:04:27.041Z,17.25
2022-09-02T18:21:21.559Z,17.02
2022-09-02T18:25:16.853Z,16.85
2022-09-02T18:29:01.237Z,16.78
2022-09-02T18:33:02.876Z,16.68
2022-09-02T18:46:27.402Z,16.51
2022-09-02T18:50:22.115Z,16.30
2022-09-02T18:54:17.894Z,16.22
2022-09-02T18:58:03.225Z,16.15
2022-09-02T19:11:34.401Z,15.94
2022-09-02T19:15:17.465Z,15.74
2022-09-02T19:18:59.522Z,15.68
2022-09-02T19:28:56.781Z,15.64
2022-09-02T19:32:33.889Z,15.52
2022-09-02T19:36:13.721Z,15.42
2022-09-02T19:53:22.725Z,15.31
2022-09-02T19:56:57.591Z,15.19
2022-09-02T20:00:33.882Z,15.14
2022-09-02T20:04:09.288Z,15.02
2022-09-02T20:07:35.231Z,14.97
2022-09-02T20:21:06.391Z,14.91
2022-09-02T20:24:40.231Z,14.77
2022-09-02T20:28:35.575Z,14.76
2022-09-02T20:39:05.011Z,14.69
2022-09-02T20:43:07.661Z,14.53
2022-09-02T20:46:54.681Z,14.47
2022-09-02T21:03:59.527Z,14.31
2022-09-02T21:07:43.039Z,14.22
2022-09-02T21:11:18.050Z,14.14
2022-09-02T21:28:44.361Z,13.97
2022-09-02T21:32:26.693Z,13.83
2022-09-02T21:39:17.292Z,13.87
2022-09-02T21:43:12.961Z,13.74
2022-09-02T21:46:49.707Z,13.67
2022-09-02T22:00:09.489Z,13.54
2022-09-02T22:03:55.403Z,13.37
2022-09-02T22:07:35.374Z,13.33
2022-09-02T22:11:16.723Z,13.26
2022-09-02T22:14:59.630Z,13.23
2022-09-02T22:28:28.981Z,13.19
2022-09-02T22:32:10.441Z,13.02
2022-09-02T22:35:54.530Z,12.96
2022-09-02T22:46:14.025Z,12.93
2022-09-02T22:50:10.402Z,12.76
2022-09-02T22:53:44.121Z,12.69
2022-09-02T23:07:06.571Z,12.79
2022-09-02T23:10:47.882Z,12.67
2022-09-02T23:14:36.201Z,12.59
2022-09-02T23:18:45.831Z,12.56
2022-09-02T23:32:33.762Z,12.78
2022-09-02T23:36:14.692Z,12.67
2022-09-02T23:40:02.952Z,12.57
2022-09-02T23:46:44.081Z,12.66
2022-09-02T23:50:26.947Z,12.57
2022-09-02T23:54:18.071Z,12.51
